Pagrindinis puslapis
METAR-TAF:

METAR-TAF

Oro uostai :

Durham, Anglija

platuma: 54-31N, ilguma: 001-25W, Aukštis: 37 m

Dabartinis oras

Ataskaita buvo paskelbta 47 minutes, ne 10:20 UTC
Vėjas 7 kt iš Šiaurės
Temperatūra 8°C
Drėgmė 76%
Slėgis 1035 hPa
Matomumas 10 km arba daugiau
Mažai debesys ne aukštis 1900 ft
Išsisklaidę debesys ne aukštis 3300 ft

METAR: EGNV 311020Z 35007KT 9999 FEW019 SCT033 08/04 Q1035

Laikas: 12:07 (11:07 UTC)

Prognozė

Ataskaita buvo paskelbta 3 valandos ir 9 minutes, ne 07:58 UTC
Prognozė galioja nuo 31 metu 09 UTC su 31 metu 18 UTC
Vėjas 8 kt iš Šiaurės/Šiaurės Vakarų
Matomumas 10 km arba daugiau
Išsisklaidę debesys ne aukštis 2000 ft
Tikimybė 30% :
Laikinai
nuo 31 metu 09 UTC su 31 metu 18 UTC
Matomumas: 8000 m
Su prošvaistėmis ne aukštis 1200 ft
lietus

TAF: EGNV 310758Z 3109/3118 34008KT 9999 SCT020 PROB30 TEMPO 3109/3118 8000 -SHRA BKN012

Orai ataskaitas ir orų prognozės (METAR, TAF).

turimą stotys yra geltonos ir raudonos taškus žemėlapyje.

Perkelti pele per norėdami pamatyti stoties vardą.

Tada spustelėkite, norėdami matyti oro stebėjimo ir prognozės.

Norėdami pakeisti žemėlapį: spustelėkite ant žalios mygtukų su juodo kryžiaus žemyn,; žalią mygtuką su brūkšneliu, jei norite nutolinti; arba žalių rodyklių gretimoms žemėlapius.


METAR-TAF: